Time;durP1;ratioP1;P1;durP2;ratioP2;P2;SDS_P1;SDS_P2;PMS_P1;PMS_P2;Temp;Humidity;BMP_temperature;BMP_pressure;BME280_temperature;BME280_humidity;BME280_pressure;Samples;Min_cycle;Max_cycle;Signal;HPM_P1;HPM_P2
2021/08/01 00:00:56;;;;;;;5.47;4.97;;;19.90;99.90;;;;;;5013663;28;20411;-55
2021/08/01 00:03:22;;;;;;;4.20;3.60;;;19.80;99.90;;;;;;5013101;28;20191;-59
2021/08/01 00:05:48;;;;;;;8.07;4.70;;;19.70;99.90;;;;;;5013637;28;20263;-58
2021/08/01 00:08:13;;;;;;;4.80;4.30;;;19.60;99.90;;;;;;5013875;28;20594;-53
2021/08/01 00:10:39;;;;;;;6.97;4.93;;;19.60;99.90;;;;;;5013551;28;20688;-56
2021/08/01 00:13:05;;;;;;;5.23;4.33;;;19.60;99.90;;;;;;5013326;28;20215;-57
2021/08/01 00:15:31;;;;;;;6.60;4.03;;;19.50;99.90;;;;;;5013537;28;20454;-58
2021/08/01 00:17:56;;;;;;;5.13;4.73;;;19.60;99.90;;;;;;5013092;28;20171;-57
2021/08/01 00:20:22;;;;;;;5.80;4.40;;;19.60;99.90;;;;;;5013336;28;20176;-55
2021/08/01 00:22:48;;;;;;;8.53;5.17;;;19.50;99.90;;;;;;5013341;28;20218;-53
2021/08/01 00:25:13;;;;;;;5.47;4.90;;;19.40;99.90;;;;;;5013331;28;20168;-56
2021/08/01 00:27:40;;;;;;;4.47;4.03;;;19.30;99.90;;;;;;5013353;28;20645;-57
2021/08/01 00:30:09;;;;;;;6.03;5.43;;;19.50;99.90;;;;;;5013421;28;20168;-55
2021/08/01 00:32:36;;;;;;;7.27;4.23;;;19.50;99.90;;;;;;5011726;28;20538;-58
2021/08/01 00:35:02;;;;;;;4.00;3.60;;;19.50;99.90;;;;;;5013411;28;20461;-59
2021/08/01 00:37:28;;;;;;;8.10;5.33;;;19.50;99.90;;;;;;5012299;28;20450;-57
2021/08/01 00:39:53;;;;;;;5.80;4.40;;;19.40;99.90;;;;;;5014864;28;20899;-59
2021/08/01 00:42:19;;;;;;;5.97;4.23;;;19.30;99.90;;;;;;5017206;28;20266;-59
2021/08/01 00:44:45;;;;;;;6.67;5.60;;;19.20;99.90;;;;;;5016140;28;20172;-57
2021/08/01 00:47:11;;;;;;;4.53;4.13;;;19.10;99.90;;;;;;5016943;28;20207;-58
2021/08/01 00:49:37;;;;;;;7.20;5.10;;;18.90;99.90;;;;;;5017429;28;20196;-59
2021/08/01 00:52:07;;;;;;;5.53;5.03;;;18.80;99.90;;;;;;5017198;28;20419;-59
2021/08/01 00:54:33;;;;;;;4.50;4.10;;;18.70;99.90;;;;;;5019059;28;20473;-57
2021/08/01 00:57:01;;;;;;;8.00;4.83;;;18.70;99.90;;;;;;5017197;28;20450;-56
2021/08/01 00:59:30;;;;;;;5.40;4.90;;;18.50;99.90;;;;;;5016665;28;20903;-58
2021/08/01 01:02:16;;;;;;;5.10;4.60;;;18.50;99.90;;;;;;5016962;28;20419;-57
2021/08/01 01:04:53;;;;;;;5.40;4.60;;;18.50;99.90;;;;;;5017086;28;20434;-57
2021/08/01 01:07:34;;;;;;;4.80;4.40;;;18.50;99.90;;;;;;5017217;28;20398;-57
2021/08/01 01:10:16;;;;;;;5.97;4.83;;;18.30;99.90;;;;;;5017150;28;20435;-56
2021/08/01 01:12:48;;;;;;;5.07;4.57;;;18.30;99.90;;;;;;5048574;23;20488;-53
2021/08/01 01:15:22;;;;;;;5.20;4.40;;;18.10;99.90;;;;;;5036526;28;20450;-56
2021/08/01 01:17:50;;;;;;;5.40;4.90;;;18.10;99.90;;;;;;5036098;28;20398;-55
2021/08/01 01:20:43;;;;;;;4.63;4.23;;;18.20;99.90;;;;;;5036225;28;20402;-55
2021/08/01 01:23:34;;;;;;;5.30;4.50;;;18.30;99.90;;;;;;5036257;28;20430;-56
2021/08/01 01:26:00;;;;;;;4.90;4.40;;;18.40;99.90;;;;;;5036503;28;20387;-54
2021/08/01 01:28:40;;;;;;;7.90;5.47;;;18.40;99.90;;;;;;5036111;28;20406;-53
2021/08/01 01:31:15;;;;;;;4.97;4.30;;;18.50;99.90;;;;;;5036005;28;20418;-51
2021/08/01 01:33:59;;;;;;;4.43;4.03;;;18.60;99.90;;;;;;5035738;28;20424;-54
2021/08/01 01:36:27;;;;;;;4.60;4.20;;;18.70;99.90;;;;;;5035904;28;20495;-56
2021/08/01 01:38:55;;;;;;;5.53;5.00;;;18.70;99.90;;;;;;5035871;28;20394;-56
2021/08/01 01:41:23;;;;;;;6.37;4.20;;;18.60;99.90;;;;;;5035801;28;20409;-55
2021/08/01 01:43:51;;;;;;;5.30;4.80;;;18.70;99.90;;;;;;5035513;28;20426;-53
2021/08/01 01:46:17;;;;;;;5.30;4.73;;;18.70;99.90;;;;;;5035850;28;20750;-54
2021/08/01 01:48:43;;;;;;;5.87;4.03;;;18.60;99.90;;;;;;5035706;28;20749;-56
2021/08/01 01:51:10;;;;;;;5.50;4.87;;;18.70;99.90;;;;;;5034720;28;20785;-56
2021/08/01 01:53:37;;;;;;;8.17;5.30;;;18.70;99.90;;;;;;5035352;28;20433;-54
2021/08/01 01:56:02;;;;;;;5.23;3.83;;;18.80;99.90;;;;;;5035543;28;20450;-55
2021/08/01 01:58:29;;;;;;;6.77;4.37;;;18.70;99.90;;;;;;5035322;28;20408;-53
2021/08/01 02:00:54;;;;;;;5.27;4.77;;;18.70;99.90;;;;;;5035711;28;20155;-55
2021/08/01 02:03:21;;;;;;;4.80;4.20;;;18.80;99.90;;;;;;5035118;28;20961;-56
2021/08/01 02:05:47;;;;;;;5.53;4.60;;;18.70;99.90;;;;;;5035583;28;20175;-53
2021/08/01 02:08:13;;;;;;;5.80;5.30;;;18.70;99.90;;;;;;5035803;28;20460;-52
2021/08/01 02:10:47;;;;;;;5.87;5.27;;;18.70;99.90;;;;;;5035308;28;20232;-54
2021/08/01 02:13:18;;;;;;;6.20;5.33;;;18.90;99.90;;;;;;5035522;28;20202;-55
2021/08/01 02:15:51;;;;;;;7.10;5.73;;;18.80;99.90;;;;;;5035787;28;20482;-53
2021/08/01 02:18:23;;;;;;;5.43;4.93;;;18.80;99.90;;;;;;5034887;28;20428;-53
2021/08/01 02:20:51;;;;;;;5.70;4.53;;;18.90;99.90;;;;;;5034344;28;20422;-53
2021/08/01 02:23:21;;;;;;;4.83;4.37;;;18.80;99.90;;;;;;5035028;28;20426;-53
2021/08/01 02:25:47;;;;;;;6.70;6.07;;;18.70;99.90;;;;;;5035036;28;20406;-53
2021/08/01 02:28:15;;;;;;;7.07;5.27;;;18.70;99.90;;;;;;5034011;28;20414;-53
2021/08/01 02:30:42;;;;;;;5.33;4.83;;;18.80;99.90;;;;;;5035181;28;20410;-52
2021/08/01 02:33:08;;;;;;;5.80;4.80;;;18.80;99.90;;;;;;5034843;28;20856;-54
2021/08/01 02:35:35;;;;;;;6.03;4.83;;;18.70;99.90;;;;;;5034748;28;20839;-55
2021/08/01 02:38:02;;;;;;;5.53;4.67;;;18.60;99.90;;;;;;5035215;28;20430;-50
2021/08/01 02:40:33;;;;;;;5.60;5.10;;;18.50;99.90;;;;;;5035264;28;20464;-54
2021/08/01 02:43:01;;;;;;;7.30;5.07;;;18.50;99.90;;;;;;5035585;28;20422;-53
2021/08/01 02:45:27;;;;;;;5.97;5.23;;;18.40;99.90;;;;;;5035023;28;20807;-51
2021/08/01 02:47:54;;;;;;;5.63;5.00;;;18.40;99.90;;;;;;5034807;28;20527;-55
2021/08/01 02:50:21;;;;;;;5.10;4.60;;;18.60;99.90;;;;;;5034323;28;20414;-56
2021/08/01 02:52:59;;;;;;;6.40;5.00;;;18.60;99.90;;;;;;5034732;28;20437;-56
2021/08/01 02:55:28;;;;;;;6.77;6.10;;;18.60;99.90;;;;;;5034697;28;20818;-55
2021/08/01 02:57:54;;;;;;;5.83;5.33;;;18.70;99.90;;;;;;5034275;28;20775;-56
2021/08/01 03:00:21;;;;;;;6.80;6.10;;;18.70;99.90;;;;;;5034165;28;20409;-55
2021/08/01 03:02:48;;;;;;;5.80;5.20;;;18.50;99.90;;;;;;5034205;28;20792;-55
2021/08/01 03:05:14;;;;;;;5.47;4.90;;;18.40;99.90;;;;;;5036472;28;20406;-54
2021/08/01 03:07:41;;;;;;;5.70;5.20;;;18.50;99.90;;;;;;5034493;28;20398;-52
2021/08/01 03:10:07;;;;;;;6.60;6.00;;;18.50;99.90;;;;;;5034200;28;20770;-56
2021/08/01 03:12:40;;;;;;;5.73;4.60;;;18.50;99.90;;;;;;5034171;28;20876;-56
2021/08/01 03:15:06;;;;;;;8.40;6.17;;;18.50;99.90;;;;;;5033912;28;20385;-51
2021/08/01 03:17:31;;;;;;;7.50;5.30;;;18.50;99.90;;;;;;5034361;28;20500;-49
2021/08/01 03:19:57;;;;;;;6.40;5.40;;;18.60;99.90;;;;;;5033757;28;20222;-51
2021/08/01 03:22:23;;;;;;;6.27;5.63;;;18.70;99.90;;;;;;5033871;28;20179;-53
2021/08/01 03:24:48;;;;;;;6.00;5.40;;;18.70;99.90;;;;;;5033945;28;20175;-52
2021/08/01 03:27:14;;;;;;;5.30;4.80;;;18.70;99.90;;;;;;5033851;28;20644;-51
2021/08/01 03:29:39;;;;;;;8.83;5.57;;;18.60;99.90;;;;;;5032819;28;20206;-53
2021/08/01 03:32:05;;;;;;;8.47;5.23;;;18.60;99.90;;;;;;5033628;28;20616;-52
2021/08/01 03:34:31;;;;;;;5.60;4.50;;;18.60;99.90;;;;;;5034129;28;20175;-52
2021/08/01 03:36:57;;;;;;;4.80;4.40;;;18.60;99.90;;;;;;5033391;28;20962;-51
2021/08/01 03:39:23;;;;;;;6.90;4.83;;;18.50;99.90;;;;;;5033965;28;20170;-51
2021/08/01 03:41:48;;;;;;;6.50;5.33;;;18.60;99.90;;;;;;5034570;28;20167;-48
2021/08/01 03:44:14;;;;;;;6.70;4.90;;;18.60;99.90;;;;;;5036321;28;20456;-53
2021/08/01 03:46:39;;;;;;;6.00;5.47;;;18.60;99.90;;;;;;5035296;28;20170;-51
2021/08/01 03:49:05;;;;;;;8.10;5.60;;;18.50;99.90;;;;;;5036125;28;20175;-54
2021/08/01 03:51:31;;;;;;;5.50;5.00;;;18.50;99.90;;;;;;5035384;28;20198;-54
2021/08/01 03:53:56;;;;;;;4.17;3.77;;;18.50;99.90;;;;;;5035229;28;20214;-55
2021/08/01 03:56:22;;;;;;;7.50;5.50;;;18.50;99.90;;;;;;5033646;28;20202;-56
2021/08/01 03:58:48;;;;;;;7.73;5.93;;;18.60;99.90;;;;;;5033294;28;20711;-56
2021/08/01 04:01:14;;;;;;;5.70;5.00;;;18.60;99.90;;;;;;5033685;28;20240;-54
2021/08/01 04:03:40;;;;;;;5.50;4.13;;;18.40;99.90;;;;;;5033186;28;20558;-55
2021/08/01 04:06:05;;;;;;;7.87;5.93;;;18.30;99.90;;;;;;5033104;28;20414;-52
2021/08/01 04:08:31;;;;;;;5.33;4.83;;;18.30;99.90;;;;;;5033108;28;20652;-55
2021/08/01 04:10:57;;;;;;;7.00;5.23;;;18.30;99.90;;;;;;5031843;28;20171;-53
2021/08/01 04:13:23;;;;;;;5.37;4.87;;;18.40;99.90;;;;;;5032497;28;20203;-53
2021/08/01 04:15:48;;;;;;;5.77;5.23;;;18.40;99.90;;;;;;5032959;28;20195;-51
2021/08/01 04:18:14;;;;;;;6.77;4.90;;;18.40;99.90;;;;;;5033215;28;20198;-52
2021/08/01 04:20:40;;;;;;;6.27;5.07;;;18.30;99.90;;;;;;5033338;28;20640;-55
2021/08/01 04:23:05;;;;;;;5.60;5.10;;;18.20;99.90;;;;;;5033017;28;20183;-54
2021/08/01 04:25:31;;;;;;;6.70;6.10;;;18.10;99.90;;;;;;5033275;28;20167;-56
2021/08/01 04:27:57;;;;;;;5.43;4.93;;;18.10;99.90;;;;;;5033038;28;20178;-55
2021/08/01 04:30:22;;;;;;;5.80;5.40;;;18.20;99.90;;;;;;5032794;28;20172;-53
2021/08/01 04:32:48;;;;;;;6.00;5.50;;;18.20;99.90;;;;;;5032841;28;20199;-53
2021/08/01 04:35:14;;;;;;;6.47;5.40;;;18.20;99.90;;;;;;5032658;28;20270;-52
2021/08/01 04:37:39;;;;;;;5.57;5.07;;;18.30;99.90;;;;;;5033155;28;20194;-51
2021/08/01 04:40:06;;;;;;;8.93;6.70;;;18.30;99.90;;;;;;5033165;28;20643;-55
2021/08/01 04:42:32;;;;;;;6.93;5.60;;;18.30;99.90;;;;;;5033032;28;20260;-57
2021/08/01 04:44:57;;;;;;;5.80;5.30;;;18.30;99.90;;;;;;5032595;28;20403;-55
2021/08/01 04:47:23;;;;;;;6.10;5.53;;;18.30;99.90;;;;;;5033131;28;20167;-56
2021/08/01 04:49:49;;;;;;;5.30;4.80;;;18.20;99.90;;;;;;5033073;28;20544;-55
2021/08/01 04:52:16;;;;;;;6.03;5.50;;;18.10;99.90;;;;;;5032415;28;20183;-57
2021/08/01 04:54:42;;;;;;;6.40;5.60;;;18.10;99.90;;;;;;5032769;28;20389;-57
2021/08/01 04:57:08;;;;;;;8.60;6.47;;;18.10;99.90;;;;;;5032889;28;20989;-56
2021/08/01 04:59:34;;;;;;;5.00;4.60;;;18.20;99.90;;;;;;5034043;28;20160;-57
2021/08/01 05:02:01;;;;;;;7.00;6.30;;;18.30;99.90;;;;;;5033407;28;20426;-56
2021/08/01 05:04:28;;;;;;;6.10;5.60;;;18.40;99.90;;;;;;5032970;28;20178;-53
2021/08/01 05:06:53;;;;;;;6.17;5.57;;;18.40;99.90;;;;;;5032434;28;20808;-54
2021/08/01 05:09:19;;;;;;;6.03;5.43;;;18.40;99.90;;;;;;5032669;28;20436;-56
2021/08/01 05:11:45;;;;;;;5.97;5.43;;;18.40;99.90;;;;;;5032367;28;20660;-56
2021/08/01 05:14:10;;;;;;;7.27;4.53;;;18.40;99.90;;;;;;5032467;28;20156;-53
2021/08/01 05:16:36;;;;;;;5.10;4.63;;;18.30;99.90;;;;;;5032492;28;20210;-55
2021/08/01 05:19:02;;;;;;;7.80;5.60;;;18.40;99.90;;;;;;5032845;28;20528;-55
2021/08/01 05:21:27;;;;;;;6.40;5.23;;;18.50;99.90;;;;;;5032576;28;20172;-54
2021/08/01 05:23:53;;;;;;;5.33;4.80;;;18.40;99.90;;;;;;5032436;28;20422;-55
2021/08/01 05:26:19;;;;;;;5.77;5.27;;;18.30;99.90;;;;;;5034790;28;20667;-55
2021/08/01 05:28:44;;;;;;;6.30;5.80;;;18.30;99.90;;;;;;5035893;28;20182;-53
2021/08/01 05:31:10;;;;;;;6.07;5.43;;;18.40;99.90;;;;;;5036395;28;20171;-56
2021/08/01 05:33:36;;;;;;;7.37;4.90;;;18.50;99.90;;;;;;5036001;28;20554;-55
2021/08/01 05:36:09;;;;;;;4.70;4.27;;;18.70;99.90;;;;;;5035965;28;20278;-55
2021/08/01 05:38:36;;;;;;;4.70;4.40;;;18.70;99.90;;;;;;5036438;28;20163;-55
2021/08/01 05:41:02;;;;;;;4.40;4.03;;;18.70;99.90;;;;;;5036475;28;20408;-56
2021/08/01 05:43:27;;;;;;;4.77;4.30;;;18.90;99.90;;;;;;5035798;28;20410;-56
2021/08/01 05:45:53;;;;;;;8.83;5.40;;;19.10;99.90;;;;;;5035528;28;20163;-53
2021/08/01 05:48:18;;;;;;;5.10;4.60;;;19.20;99.90;;;;;;5035760;28;20679;-54
2021/08/01 05:50:44;;;;;;;5.77;5.17;;;18.80;99.90;;;;;;5035482;28;20517;-53
2021/08/01 05:53:09;;;;;;;5.10;4.60;;;18.90;99.90;;;;;;5035603;28;20195;-56
2021/08/01 05:55:35;;;;;;;5.03;4.63;;;18.90;99.90;;;;;;5036070;28;20226;-54
2021/08/01 05:58:01;;;;;;;5.37;4.87;;;18.90;99.90;;;;;;5035573;28;20163;-56
2021/08/01 06:00:29;;;;;;;5.70;4.60;;;19.00;99.90;;;;;;5035462;28;20539;-52
2021/08/01 06:02:55;;;;;;;5.03;4.53;;;18.80;99.90;;;;;;5035667;28;20183;-54
2021/08/01 06:05:20;;;;;;;4.23;3.80;;;18.80;99.90;;;;;;5035426;28;20410;-56
2021/08/01 06:07:46;;;;;;;6.13;5.43;;;18.80;99.90;;;;;;5035072;28;20246;-56
2021/08/01 06:10:12;;;;;;;5.50;5.00;;;19.00;99.90;;;;;;5035331;28;20175;-55
2021/08/01 06:12:38;;;;;;;5.70;4.37;;;19.10;99.90;;;;;;5035052;28;20211;-53
2021/08/01 06:15:04;;;;;;;3.90;3.60;;;18.90;99.90;;;;;;5034944;28;20463;-56
2021/08/01 06:17:30;;;;;;;6.00;4.67;;;19.10;99.90;;;;;;5035194;28;20175;-55
2021/08/01 06:19:56;;;;;;;4.83;4.03;;;19.10;99.90;;;;;;5035131;28;20406;-54
2021/08/01 06:22:23;;;;;;;5.07;4.57;;;19.20;99.90;;;;;;5033874;28;20690;-53
2021/08/01 06:24:49;;;;;;;6.13;5.60;;;19.10;99.90;;;;;;5034960;28;20899;-55
2021/08/01 06:27:14;;;;;;;5.00;4.50;;;19.00;99.90;;;;;;5035430;28;20459;-55
2021/08/01 06:29:40;;;;;;;5.27;4.53;;;19.00;99.90;;;;;;5034768;28;20209;-51
2021/08/01 06:32:06;;;;;;;4.53;4.17;;;19.20;99.90;;;;;;5034879;28;20337;-55
2021/08/01 06:34:31;;;;;;;5.20;4.33;;;19.20;99.90;;;;;;5035163;28;20237;-54
2021/08/01 06:36:57;;;;;;;4.77;4.37;;;19.30;99.90;;;;;;5033960;28;20249;-56
2021/08/01 06:39:23;;;;;;;4.70;4.00;;;19.40;99.90;;;;;;5034841;28;20195;-56
2021/08/01 06:41:48;;;;;;;5.37;4.97;;;19.40;99.90;;;;;;5033485;28;20171;-52
2021/08/01 06:44:14;;;;;;;4.90;4.50;;;19.50;99.90;;;;;;5034530;28;20181;-53
2021/08/01 06:46:40;;;;;;;4.17;3.77;;;19.70;99.90;;;;;;5034954;28;20217;-53
2021/08/01 06:49:05;;;;;;;5.17;4.73;;;19.70;99.90;;;;;;5034622;28;20175;-52
2021/08/01 06:51:31;;;;;;;4.40;4.10;;;19.80;99.90;;;;;;5034375;28;20167;-53
2021/08/01 06:53:56;;;;;;;5.27;4.80;;;20.00;99.90;;;;;;5034475;28;20675;-52
2021/08/01 06:56:22;;;;;;;5.47;4.97;;;20.00;99.90;;;;;;5035101;28;20252;-56
2021/08/01 06:58:47;;;;;;;5.30;4.30;;;19.90;99.90;;;;;;5037285;28;20250;-53
2021/08/01 07:01:13;;;;;;;4.17;3.77;;;19.70;99.90;;;;;;5034364;28;20691;-51
2021/08/01 07:03:39;;;;;;;5.17;4.67;;;19.80;99.90;;;;;;5034298;28;20194;-50
2021/08/01 07:06:05;;;;;;;5.23;4.53;;;20.10;99.90;;;;;;5035062;28;20228;-56
2021/08/01 07:08:30;;;;;;;5.17;4.77;;;20.30;99.90;;;;;;5035316;28;20811;-48
2021/08/01 07:10:56;;;;;;;4.33;3.93;;;20.50;99.90;;;;;;5037498;28;20171;-55
2021/08/01 07:13:22;;;;;;;4.13;3.77;;;20.60;99.90;;;;;;5049702;23;20766;-56
2021/08/01 07:15:51;;;;;;;5.30;4.30;;;20.60;99.90;;;;;;5014091;28;20230;-56
2021/08/01 07:18:17;;;;;;;4.80;4.17;;;20.40;99.90;;;;;;5014676;28;20670;-58
2021/08/01 07:20:43;;;;;;;5.73;4.50;;;20.20;99.90;;;;;;5014058;28;20494;-57
2021/08/01 07:23:09;;;;;;;5.43;4.23;;;20.20;99.90;;;;;;5013166;28;20242;-56
2021/08/01 07:25:36;;;;;;;4.50;4.10;;;20.30;99.90;;;;;;5014159;28;20172;-56
2021/08/01 07:28:04;;;;;;;4.03;3.57;;;20.30;99.90;;;;;;5014416;28;20439;-52
2021/08/01 07:30:30;;;;;;;4.37;3.97;;;20.20;99.90;;;;;;5014335;28;20457;-52
2021/08/01 07:32:55;;;;;;;4.37;4.07;;;20.20;99.90;;;;;;5012519;28;20443;-55
2021/08/01 07:35:21;;;;;;;6.00;5.50;;;20.10;99.90;;;;;;5013875;28;20196;-52
2021/08/01 07:37:46;;;;;;;6.00;4.83;;;20.10;99.90;;;;;;5014316;28;20222;-56
2021/08/01 07:40:12;;;;;;;4.53;4.13;;;20.00;99.90;;;;;;5014037;28;20535;-57
2021/08/01 07:42:38;;;;;;;6.43;4.37;;;19.70;99.90;;;;;;5013852;28;20194;-56
2021/08/01 07:45:05;;;;;;;4.90;4.27;;;19.70;99.90;;;;;;5014162;28;20175;-56
2021/08/01 07:47:33;;;;;;;5.00;4.27;;;19.50;99.90;;;;;;5012568;28;20172;-55
2021/08/01 07:50:00;;;;;;;9.50;5.70;;;19.40;99.90;;;;;;5012660;28;20427;-54
2021/08/01 07:52:26;;;;;;;5.83;5.33;;;19.40;99.90;;;;;;5014462;28;20459;-53
2021/08/01 07:54:52;;;;;;;8.13;4.93;;;19.30;99.90;;;;;;5014355;28;20906;-54
2021/08/01 07:57:28;;;;;;;7.37;4.70;;;19.10;99.90;;;;;;5013929;28;20562;-54
2021/08/01 08:00:00;;;;;;;6.20;5.53;;;19.00;99.90;;;;;;5014157;28;20701;-54
2021/08/01 08:02:26;;;;;;;4.60;4.20;;;19.00;99.90;;;;;;5013369;28;20445;-55
2021/08/01 08:04:52;;;;;;;5.70;4.07;;;19.10;99.90;;;;;;5013528;28;20490;-53
2021/08/01 08:07:18;;;;;;;4.70;4.27;;;19.10;99.90;;;;;;5013622;28;20591;-56
2021/08/01 08:09:44;;;;;;;5.20;4.70;;;19.20;99.90;;;;;;5013851;28;20411;-55
2021/08/01 08:12:10;;;;;;;5.60;4.70;;;19.30;99.90;;;;;;5013958;28;20168;-54
2021/08/01 08:14:36;;;;;;;6.33;5.60;;;19.40;99.90;;;;;;5013680;28;20263;-53
2021/08/01 08:17:02;;;;;;;4.97;4.47;;;19.40;99.90;;;;;;5013533;28;20533;-57
2021/08/01 08:19:27;;;;;;;6.00;5.37;;;19.30;99.90;;;;;;5012975;28;20621;-51
2021/08/01 08:21:54;;;;;;;7.63;4.90;;;19.30;99.90;;;;;;5013753;28;20668;-55
2021/08/01 08:24:20;;;;;;;5.00;4.17;;;19.40;99.90;;;;;;5012302;28;20199;-54
2021/08/01 08:26:46;;;;;;;4.63;4.20;;;19.40;99.90;;;;;;5013712;28;20407;-55
2021/08/01 08:29:11;;;;;;;4.13;3.80;;;19.40;99.90;;;;;;5013393;28;20426;-54
2021/08/01 08:31:37;;;;;;;5.53;4.50;;;19.50;99.90;;;;;;5012397;28;20544;-58
2021/08/01 08:34:03;;;;;;;6.50;5.10;;;19.60;99.90;;;;;;5013274;28;20192;-56
2021/08/01 08:36:28;;;;;;;6.90;5.20;;;19.60;99.90;;;;;;5013737;28;20206;-56
2021/08/01 08:38:54;;;;;;;5.10;4.70;;;19.60;99.90;;;;;;5013040;28;20632;-55
2021/08/01 08:41:20;;;;;;;5.03;4.63;;;19.60;99.90;;;;;;5013499;28;20255;-53
2021/08/01 08:43:46;;;;;;;5.00;4.53;;;19.60;99.90;;;;;;5013191;28;20184;-56
2021/08/01 08:46:13;;;;;;;5.63;3.83;;;19.50;99.90;;;;;;5013209;28;20457;-54
2021/08/01 08:48:40;;;;;;;4.50;4.03;;;19.70;99.90;;;;;;5013094;28;20403;-58
2021/08/01 08:51:10;;;;;;;4.03;3.63;;;19.90;99.90;;;;;;5013181;28;20912;-56
2021/08/01 08:53:42;;;;;;;3.80;3.50;;;20.10;99.90;;;;;;5012932;28;20481;-59
2021/08/01 08:56:10;;;;;;;5.03;3.80;;;19.90;99.90;;;;;;5013088;28;20438;-59
2021/08/01 08:58:38;;;;;;;4.70;4.30;;;20.10;99.90;;;;;;5015559;28;20502;-58
2021/08/01 09:01:04;;;;;;;3.87;3.57;;;20.20;99.90;;;;;;5015214;28;20418;-58
2021/08/01 09:03:30;;;;;;;4.53;4.23;;;19.90;99.90;;;;;;5017172;28;20418;-59
2021/08/01 09:05:59;;;;;;;4.60;3.87;;;20.00;99.90;;;;;;5016842;28;20421;-58
2021/08/01 09:08:25;;;;;;;5.30;4.40;;;20.20;99.90;;;;;;5016826;28;20176;-59
2021/08/01 09:10:52;;;;;;;5.60;4.00;;;20.20;99.90;;;;;;5017114;28;20411;-56
2021/08/01 09:13:47;;;;;;;4.60;4.20;;;20.30;99.90;;;;;;5016690;28;20446;-58
2021/08/01 09:16:13;;;;;;;7.50;4.17;;;20.50;99.90;;;;;;5015603;28;20534;-56
2021/08/01 09:18:39;;;;;;;4.20;3.80;;;20.60;99.90;;;;;;5016668;28;20414;-59
2021/08/01 09:21:06;;;;;;;3.87;3.57;;;20.90;99.90;;;;;;5016975;28;20399;-58
2021/08/01 09:23:33;;;;;;;3.73;3.43;;;20.90;99.90;;;;;;5016569;28;20414;-55
2021/08/01 09:26:04;;;;;;;5.97;4.40;;;20.70;99.90;;;;;;5016897;28;20452;-58
2021/08/01 09:28:30;;;;;;;4.00;3.60;;;20.80;99.90;;;;;;5017001;28;20430;-59
2021/08/01 09:31:06;;;;;;;4.70;3.33;;;20.80;99.90;;;;;;5016216;28;20896;-58
2021/08/01 09:33:33;;;;;;;6.10;3.93;;;20.90;99.90;;;;;;5015711;28;20282;-58
2021/08/01 09:36:21;;;;;;;5.60;4.30;;;21.00;99.90;;;;;;5016536;28;20537;-58
2021/08/01 09:38:55;;;;;;;4.10;3.70;;;21.20;99.90;;;;;;5016083;28;20394;-58
2021/08/01 09:41:24;;;;;;;5.20;4.40;;;21.40;99.90;;;;;;5015747;28;20411;-56
2021/08/01 09:43:55;;;;;;;6.70;5.00;;;21.20;99.90;;;;;;5016498;28;20429;-58
2021/08/01 09:46:35;;;;;;;4.63;4.23;;;21.10;99.90;;;;;;5016131;28;20498;-56
2021/08/01 09:49:09;;;;;;;5.27;4.43;;;21.00;99.90;;;;;;5016519;28;20450;-58
2021/08/01 09:51:42;;;;;;;3.73;3.43;;;20.70;99.90;;;;;;5016555;28;20415;-57
2021/08/01 09:54:08;;;;;;;4.53;4.13;;;20.30;99.90;;;;;;5016218;28;20799;-57
2021/08/01 09:56:34;;;;;;;4.47;3.70;;;20.20;99.90;;;;;;5016495;28;20438;-58
2021/08/01 09:59:00;;;;;;;4.40;4.00;;;20.20;99.90;;;;;;5015664;28;20414;-55
2021/08/01 10:01:26;;;;;;;4.00;3.60;;;20.20;99.90;;;;;;5016143;28;20172;-58
2021/08/01 10:03:52;;;;;;;3.60;3.40;;;20.20;99.90;;;;;;5015518;28;20188;-58
2021/08/01 10:06:19;;;;;;;3.70;3.20;;;20.20;99.90;;;;;;5015619;28;20180;-57
2021/08/01 10:08:52;;;;;;;3.80;3.17;;;20.10;99.90;;;;;;5015406;28;20172;-57
2021/08/01 10:11:23;;;;;;;3.50;3.20;;;20.30;99.90;;;;;;5015155;28;20993;-58
2021/08/01 10:13:54;;;;;;;4.73;4.00;;;20.30;99.90;;;;;;5013600;28;20987;-58
2021/08/01 10:16:20;;;;;;;4.53;4.23;;;20.40;99.90;;;;;;5015800;28;20589;-55
2021/08/01 10:18:48;;;;;;;3.80;3.40;;;20.70;99.90;;;;;;5015811;28;20414;-57
2021/08/01 10:21:20;;;;;;;3.77;3.50;;;20.60;99.90;;;;;;5015617;28;20403;-55
2021/08/01 10:23:48;;;;;;;4.20;3.87;;;20.90;99.90;;;;;;5014065;28;20442;-58
2021/08/01 10:26:17;;;;;;;4.40;4.00;;;21.00;99.90;;;;;;5016278;28;20446;-58
2021/08/01 10:28:56;;;;;;;3.50;3.20;;;21.10;99.90;;;;;;5015337;28;20439;-58
2021/08/01 10:31:30;;;;;;;3.60;3.30;;;21.50;99.90;;;;;;5015590;28;20872;-57
2021/08/01 10:34:11;;;;;;;4.00;3.60;;;21.80;99.90;;;;;;5015118;28;21020;-58
2021/08/01 10:36:38;;;;;;;3.80;3.03;;;21.70;99.90;;;;;;5016468;28;20510;-58
2021/08/01 10:39:08;;;;;;;3.97;3.07;;;21.60;99.90;;;;;;5014102;28;20493;-58
2021/08/01 10:41:35;;;;;;;4.00;3.20;;;21.70;99.90;;;;;;5015161;28;20457;-58
2021/08/01 10:44:08;;;;;;;2.73;2.53;;;21.80;99.90;;;;;;5014802;28;20419;-55
2021/08/01 10:46:34;;;;;;;3.27;3.00;;;21.70;99.90;;;;;;5015365;28;20796;-56
2021/08/01 10:49:03;;;;;;;4.17;3.40;;;21.90;99.90;;;;;;5014707;28;20414;-58
2021/08/01 10:51:33;;;;;;;4.57;3.17;;;21.70;99.90;;;;;;5015196;28;20415;-56
2021/08/01 10:54:20;;;;;;;3.33;3.13;;;21.80;99.90;;;;;;5017390;28;20781;-54
2021/08/01 10:57:19;;;;;;;3.00;2.63;;;21.80;99.90;;;;;;5014732;28;20492;-57
2021/08/01 10:59:44;;;;;;;3.03;2.83;;;22.00;99.90;;;;;;5014951;28;20509;-55
2021/08/01 11:02:15;;;;;;;3.10;2.90;;;21.90;99.90;;;;;;5014582;28;20928;-55
2021/08/01 11:04:46;;;;;;;4.90;3.57;;;21.90;99.90;;;;;;4994843;28;20633;-55
2021/08/01 11:07:32;;;;;;;3.13;2.87;;;21.90;99.90;;;;;;4995292;28;20458;-58
2021/08/01 11:10:07;;;;;;;3.43;2.50;;;22.40;99.90;;;;;;4965188;28;20415;-58
2021/08/01 11:12:42;;;;;;;3.40;2.90;;;22.90;99.90;;;;;;4994678;28;20458;-57
2021/08/01 11:15:12;;;;;;;2.80;2.60;;;23.00;99.90;;;;;;4994758;28;20386;-58
2021/08/01 11:17:46;;;;;;;3.33;3.03;;;23.00;99.90;;;;;;4994536;28;20410;-59
2021/08/01 11:20:24;;;;;;;2.97;2.67;;;22.70;99.90;;;;;;4995117;28;20392;-57
2021/08/01 11:22:56;;;;;;;3.83;2.97;;;23.00;99.90;;;;;;4994378;28;20486;-59
2021/08/01 11:25:23;;;;;;;3.07;2.87;;;23.30;99.90;;;;;;4994763;28;20486;-58
2021/08/01 11:28:07;;;;;;;3.63;3.27;;;23.10;99.90;;;;;;4994449;28;20483;-56
2021/08/01 11:33:35;;;;;;;3.57;3.27;;;23.50;99.90;;;;;;5014273;28;21009;-58
2021/08/01 11:36:10;;;;;;;3.20;2.90;;;23.90;99.90;;;;;;5013788;28;20453;-58
2021/08/01 11:38:48;;;;;;;3.80;3.50;;;24.30;99.90;;;;;;5014053;28;20398;-57
2021/08/01 11:41:43;;;;;;;3.50;3.17;;;24.70;99.90;;;;;;5014113;28;20414;-59
2021/08/01 11:44:17;;;;;;;3.77;3.47;;;25.40;99.90;;;;;;5013896;28;20426;-58
2021/08/01 11:47:00;;;;;;;3.70;3.40;;;25.20;99.90;;;;;;5013823;28;20434;-56
2021/08/01 11:49:45;;;;;;;4.00;3.70;;;25.40;99.90;;;;;;5013801;28;20398;-56
2021/08/01 11:52:13;;;;;;;3.53;3.23;;;24.90;99.90;;;;;;5013773;28;20875;-58
2021/08/01 11:54:42;;;;;;;3.70;3.20;;;25.00;99.90;;;;;;5014349;28;20432;-57
2021/08/01 11:57:17;;;;;;;3.77;3.20;;;24.60;99.90;;;;;;5014027;28;20495;-56
2021/08/01 11:59:43;;;;;;;6.13;3.70;;;24.50;99.90;;;;;;5013637;28;20395;-57
2021/08/01 12:02:14;;;;;;;3.40;3.20;;;24.70;99.90;;;;;;5013897;28;20438;-59
2021/08/01 12:04:55;;;;;;;5.80;4.73;;;23.90;99.90;;;;;;5013399;28;20864;-55
2021/08/01 12:07:22;;;;;;;5.00;3.30;;;24.00;99.90;;;;;;5013920;28;20391;-59
2021/08/01 12:09:47;;;;;;;4.30;3.90;;;24.00;99.90;;;;;;5013625;28;20911;-58
2021/08/01 12:12:13;;;;;;;3.00;2.80;;;23.90;99.90;;;;;;5013517;28;20403;-58
2021/08/01 12:14:41;;;;;;;4.30;3.90;;;23.60;99.90;;;;;;5013632;28;20203;-59
2021/08/01 12:17:10;;;;;;;4.73;3.57;;;23.80;99.90;;;;;;5013744;28;20191;-59
2021/08/01 12:19:42;;;;;;;5.50;4.17;;;24.00;99.90;;;;;;5013425;28;20437;-57
2021/08/01 12:22:13;;;;;;;4.10;3.57;;;23.20;99.90;;;;;;5013501;28;20434;-57
2021/08/01 12:24:42;;;;;;;4.30;3.90;;;23.20;99.90;;;;;;5012240;28;20434;-56
2021/08/01 12:27:16;;;;;;;5.23;4.30;;;23.10;99.90;;;;;;5013542;28;20399;-56
2021/08/01 12:29:43;;;;;;;4.27;3.87;;;23.10;99.90;;;;;;5013752;28;20407;-57
2021/08/01 12:32:44;;;;;;;4.40;4.10;;;22.90;99.90;;;;;;5013408;28;20437;-56
2021/08/01 12:35:15;;;;;;;5.03;4.40;;;22.90;99.90;;;;;;5011061;28;20448;-54
2021/08/01 12:37:42;;;;;;;5.53;4.50;;;22.90;99.90;;;;;;5017718;28;20407;-58
2021/08/01 12:40:10;;;;;;;5.50;4.73;;;22.80;99.90;;;;;;5017215;28;20414;-56
2021/08/01 12:42:49;;;;;;;4.70;4.30;;;23.60;99.90;;;;;;5017354;28;20497;-57
2021/08/01 12:45:14;;;;;;;3.67;3.37;;;24.60;99.90;;;;;;5017388;28;20406;-57
2021/08/01 12:47:41;;;;;;;3.30;3.00;;;25.40;99.90;;;;;;5016148;28;20415;-54
2021/08/01 12:50:07;;;;;;;6.43;3.40;;;26.90;99.90;;;;;;5017872;28;20176;-58
2021/08/01 12:52:33;;;;;;;3.33;3.03;;;29.00;99.40;;;;;;5017134;28;20834;-57
2021/08/01 12:54:59;;;;;;;3.23;2.97;;;30.00;96.50;;;;;;5016724;28;20453;-58
2021/08/01 12:57:25;;;;;;;3.20;2.90;;;29.40;96.50;;;;;;5016905;28;20443;-58